createdAt,value
2022-08-31T00:04:57.527Z,19.90
2022-08-31T00:10:00.234Z,20.00
2022-08-31T00:15:03.156Z,20.10
2022-08-31T00:20:08.015Z,19.80
2022-08-31T00:25:31.170Z,20.00
2022-08-31T00:30:34.563Z,20.10
2022-08-31T00:35:39.060Z,20.20
2022-08-31T00:40:45.241Z,20.20
2022-08-31T00:45:48.014Z,20.00
2022-08-31T00:50:50.416Z,19.90
2022-08-31T00:55:53.198Z,20.00
2022-08-31T01:00:55.794Z,19.70
2022-08-31T01:05:58.825Z,19.20
2022-08-31T01:11:02.024Z,19.10
2022-08-31T01:16:09.864Z,18.90
2022-08-31T01:21:19.695Z,19.00
2022-08-31T01:26:25.973Z,19.00
2022-08-31T01:31:38.088Z,18.60
2022-08-31T01:36:43.676Z,18.20
2022-08-31T01:41:46.268Z,18.20
2022-08-31T01:46:49.153Z,18.30
2022-08-31T01:51:53.374Z,18.70
2022-08-31T01:56:56.197Z,18.60
2022-08-31T02:02:07.917Z,18.50
2022-08-31T02:07:12.190Z,18.50
2022-08-31T02:12:14.554Z,18.50
2022-08-31T02:17:17.223Z,18.40
2022-08-31T02:22:19.644Z,17.80
2022-08-31T02:27:22.081Z,17.80
2022-08-31T02:32:25.468Z,17.60
2022-08-31T02:37:27.906Z,17.50
2022-08-31T02:42:50.830Z,17.50
2022-08-31T02:47:54.498Z,17.10
2022-08-31T02:53:04.050Z,17.00
2022-08-31T02:58:06.840Z,17.20
2022-08-31T03:03:09.334Z,17.20
2022-08-31T03:08:11.865Z,17.10
2022-08-31T03:13:14.581Z,16.80
2022-08-31T03:18:19.060Z,16.80
2022-08-31T03:23:21.673Z,16.80
2022-08-31T03:28:24.309Z,16.90
2022-08-31T03:33:44.833Z,16.70
2022-08-31T03:38:47.383Z,17.20
2022-08-31T03:43:50.649Z,17.70
2022-08-31T03:48:54.625Z,17.60
2022-08-31T03:53:57.521Z,17.90
2022-08-31T03:59:00.573Z,18.20
2022-08-31T04:04:25.809Z,18.50
2022-08-31T04:09:54.630Z,18.30
2022-08-31T04:15:16.526Z,18.40
2022-08-31T04:20:45.148Z,18.50
2022-08-31T04:25:47.722Z,18.60
2022-08-31T04:30:50.557Z,18.50
2022-08-31T04:35:53.668Z,18.30
2022-08-31T04:40:56.248Z,18.10
2022-08-31T04:45:59.431Z,18.40
2022-08-31T04:51:03.630Z,18.10
2022-08-31T04:56:17.258Z,17.80
2022-08-31T05:01:23.256Z,18.00
2022-08-31T05:06:46.353Z,17.60
2022-08-31T05:11:55.228Z,17.20
2022-08-31T05:17:01.202Z,17.20
2022-08-31T05:22:05.558Z,17.10
2022-08-31T05:27:10.505Z,16.80
2022-08-31T05:32:13.137Z,16.80
2022-08-31T05:37:15.974Z,16.80
2022-08-31T05:42:21.102Z,16.80
2022-08-31T05:47:23.919Z,16.80
2022-08-31T05:52:26.768Z,16.90
2022-08-31T05:57:30.135Z,16.80
2022-08-31T06:02:36.992Z,16.50
2022-08-31T06:07:39.863Z,16.60
2022-08-31T06:12:47.257Z,16.70
2022-08-31T06:17:50.084Z,16.80
2022-08-31T06:22:52.586Z,16.70
2022-08-31T06:28:07.253Z,16.70
2022-08-31T06:33:09.855Z,16.70
2022-08-31T06:38:25.919Z,16.90
2022-08-31T06:43:54.847Z,17.00
2022-08-31T06:49:11.686Z,16.80
2022-08-31T06:54:31.642Z,16.80
2022-08-31T06:59:56.522Z,16.60
2022-08-31T07:05:24.750Z,16.70
2022-08-31T07:10:56.436Z,16.70
2022-08-31T07:16:07.892Z,16.60
2022-08-31T07:21:18.892Z,16.50
2022-08-31T07:26:36.514Z,16.50
2022-08-31T07:31:56.184Z,16.50
2022-08-31T07:37:26.273Z,16.80
2022-08-31T07:42:43.262Z,16.80
2022-08-31T07:47:52.945Z,16.80
2022-08-31T07:53:26.762Z,16.80
2022-08-31T07:59:42.628Z,16.90
2022-08-31T08:04:55.061Z,17.20
2022-08-31T08:10:25.740Z,17.20
2022-08-31T08:22:30.613Z,17.40
2022-08-31T08:28:40.772Z,17.50
2022-08-31T08:33:55.817Z,17.40
2022-08-31T08:38:59.345Z,16.90
2022-08-31T08:44:08.606Z,16.90
2022-08-31T08:49:38.103Z,17.00
2022-08-31T09:00:32.857Z,17.80
2022-08-31T09:05:51.843Z,18.40
2022-08-31T09:11:19.049Z,18.60
2022-08-31T09:16:39.042Z,18.80
2022-08-31T09:21:58.137Z,18.70
2022-08-31T09:27:18.120Z,19.10
2022-08-31T09:32:34.357Z,18.90
2022-08-31T09:37:48.152Z,18.90
2022-08-31T09:43:51.709Z,19.20
2022-08-31T09:49:03.139Z,19.50
2022-08-31T09:54:47.550Z,19.70
2022-08-31T09:59:51.538Z,19.90
2022-08-31T10:05:09.669Z,19.80
2022-08-31T10:10:31.326Z,19.80
2022-08-31T10:15:52.348Z,20.00
2022-08-31T10:21:08.941Z,19.90
2022-08-31T10:26:20.395Z,19.90
2022-08-31T10:31:36.485Z,20.00
2022-08-31T10:36:41.618Z,20.10
2022-08-31T10:41:49.404Z,20.40
2022-08-31T10:46:54.717Z,20.30
2022-08-31T10:52:21.802Z,20.40
2022-08-31T10:57:39.778Z,20.50
2022-08-31T11:02:59.290Z,20.80
2022-08-31T11:08:33.536Z,20.80
2022-08-31T11:13:49.607Z,21.10
2022-08-31T11:19:00.107Z,21.50
2022-08-31T11:24:11.827Z,21.00
2022-08-31T11:29:47.779Z,21.00
2022-08-31T11:34:53.444Z,21.10
2022-08-31T11:39:56.574Z,21.00
2022-08-31T11:45:34.257Z,21.30
2022-08-31T11:50:40.712Z,21.10
2022-08-31T11:55:49.301Z,21.10
2022-08-31T12:00:58.614Z,21.10
2022-08-31T12:06:01.485Z,21.30
2022-08-31T12:11:30.685Z,21.20
2022-08-31T12:16:57.667Z,21.60
2022-08-31T12:22:32.117Z,21.90
2022-08-31T12:28:11.949Z,21.70
2022-08-31T12:33:30.571Z,22.00
2022-08-31T12:38:32.957Z,22.30
2022-08-31T12:43:48.915Z,22.20
2022-08-31T12:49:03.306Z,22.20
2022-08-31T12:54:33.441Z,22.60
2022-08-31T13:00:11.754Z,22.70
2022-08-31T13:05:21.587Z,22.90
2022-08-31T13:10:37.965Z,22.70
2022-08-31T13:15:43.698Z,22.80
2022-08-31T13:20:47.171Z,22.60
2022-08-31T13:26:24.872Z,22.80
2022-08-31T13:31:48.950Z,22.90
2022-08-31T13:36:58.319Z,22.80
2022-08-31T13:42:08.303Z,23.00
2022-08-31T13:47:23.034Z,23.00
2022-08-31T13:52:28.277Z,22.90
2022-08-31T13:57:35.667Z,22.90
2022-08-31T14:02:39.085Z,22.90
2022-08-31T14:07:45.658Z,23.00
2022-08-31T14:13:00.139Z,23.20
2022-08-31T14:18:25.830Z,23.20
2022-08-31T14:23:31.462Z,23.60
2022-08-31T14:28:40.368Z,23.30
2022-08-31T14:33:49.996Z,23.50
2022-08-31T14:38:58.144Z,23.60
2022-08-31T14:44:09.273Z,23.80
2022-08-31T14:49:11.650Z,23.80
2022-08-31T14:54:16.860Z,23.70
2022-08-31T14:59:21.768Z,23.70
2022-08-31T15:04:25.125Z,23.70
2022-08-31T15:09:27.390Z,24.00
2022-08-31T15:14:36.873Z,24.10
2022-08-31T15:19:41.558Z,24.20
2022-08-31T15:24:47.425Z,24.10
2022-08-31T15:29:56.038Z,23.70
2022-08-31T15:35:03.319Z,23.70
2022-08-31T15:40:11.673Z,23.70
2022-08-31T15:45:16.779Z,23.70
2022-08-31T15:55:44.737Z,23.90
2022-08-31T16:00:48.111Z,23.90
2022-08-31T16:05:50.813Z,24.00
2022-08-31T16:10:54.927Z,24.00
2022-08-31T16:15:57.452Z,23.90
2022-08-31T16:21:07.838Z,24.10
2022-08-31T16:26:11.431Z,24.10
2022-08-31T16:31:14.916Z,24.20
2022-08-31T16:36:19.623Z,23.90
2022-08-31T16:41:24.337Z,23.70
2022-08-31T16:46:42.725Z,23.80
2022-08-31T16:51:48.702Z,23.80
2022-08-31T16:56:52.077Z,23.70
2022-08-31T17:01:56.153Z,23.70
2022-08-31T17:06:58.582Z,23.50
2022-08-31T17:12:07.474Z,23.70
2022-08-31T17:17:11.997Z,23.80
2022-08-31T17:22:24.469Z,23.80
2022-08-31T17:27:27.566Z,23.80
2022-08-31T17:32:33.700Z,23.60
2022-08-31T17:37:37.264Z,23.50
2022-08-31T17:42:40.082Z,23.40
2022-08-31T17:47:43.254Z,23.40
2022-08-31T17:52:47.599Z,23.50
2022-08-31T17:57:50.254Z,23.40
2022-08-31T18:02:52.784Z,23.40
2022-08-31T18:07:55.247Z,23.30
2022-08-31T18:12:57.892Z,23.30
2022-08-31T18:18:00.664Z,23.30
2022-08-31T18:23:04.548Z,23.30
2022-08-31T18:28:07.144Z,21.30
2022-08-31T18:33:14.814Z,23.30
2022-08-31T18:38:18.842Z,23.10
2022-08-31T18:43:39.848Z,23.10
2022-08-31T18:48:54.084Z,23.20
2022-08-31T18:53:56.484Z,23.40
2022-08-31T18:58:59.678Z,23.40
2022-08-31T19:04:03.956Z,23.30
2022-08-31T19:09:08.629Z,23.30
2022-08-31T19:14:12.457Z,23.00
2022-08-31T19:19:15.281Z,22.90
2022-08-31T19:24:18.259Z,22.60
2022-08-31T19:29:25.580Z,22.40
2022-08-31T19:34:33.829Z,22.60
2022-08-31T19:39:37.512Z,22.70
2022-08-31T19:45:22.670Z,22.60
2022-08-31T19:50:13.653Z,22.40
2022-08-31T19:55:16.542Z,22.00
2022-08-31T20:00:19.934Z,21.70
2022-08-31T20:05:23.375Z,21.50
2022-08-31T20:10:29.794Z,21.30
2022-08-31T20:15:36.932Z,21.30
2022-08-31T20:20:46.234Z,21.20
2022-08-31T20:25:51.168Z,21.20
2022-08-31T20:30:55.198Z,20.90
2022-08-31T20:35:58.452Z,20.80
2022-08-31T20:41:03.519Z,20.90
2022-08-31T20:46:08.770Z,20.80
2022-08-31T20:51:16.166Z,20.60
2022-08-31T20:56:18.683Z,20.60
2022-08-31T21:01:21.618Z,20.40
2022-08-31T21:06:25.999Z,20.30
2022-08-31T21:11:29.314Z,20.50
2022-08-31T21:16:34.658Z,20.40
2022-08-31T21:21:40.425Z,20.40
2022-08-31T21:26:43.890Z,20.60
2022-08-31T21:31:51.928Z,20.60
2022-08-31T21:36:55.505Z,20.70
2022-08-31T21:41:58.764Z,20.70
2022-08-31T21:47:02.229Z,20.60
2022-08-31T21:52:04.722Z,20.50
2022-08-31T21:57:07.055Z,20.50
2022-08-31T22:02:11.201Z,20.20
2022-08-31T22:07:16.292Z,20.20
2022-08-31T22:12:19.030Z,20.10
2022-08-31T22:17:42.346Z,19.90
2022-08-31T22:22:47.165Z,19.80
2022-08-31T22:27:51.278Z,19.80
2022-08-31T22:32:53.814Z,19.60
2022-08-31T22:37:56.277Z,19.50
2022-08-31T22:42:58.573Z,19.50
2022-08-31T22:48:01.350Z,19.50
2022-08-31T22:53:05.261Z,19.60
2022-08-31T22:58:07.509Z,19.60
2022-08-31T23:03:13.952Z,19.60
2022-08-31T23:08:16.292Z,19.70
2022-08-31T23:13:38.831Z,19.90
2022-08-31T23:18:43.525Z,20.20
2022-08-31T23:23:52.974Z,20.80
2022-08-31T23:28:57.721Z,20.80
2022-08-31T23:33:59.910Z,20.70
2022-08-31T23:39:03.933Z,20.60
2022-08-31T23:44:09.114Z,20.20
2022-08-31T23:49:13.589Z,19.90
2022-08-31T23:54:17.879Z,20.70
2022-08-31T23:59:20.394Z,20.70
